Time;durP1;ratioP1;P1;durP2;ratioP2;P2;SDS_P1;SDS_P2;PMS_P1;PMS_P2;Temp;Humidity;BMP_temperature;BMP_pressure;BME280_temperature;BME280_humidity;BME280_pressure;Samples;Min_cycle;Max_cycle;Signal;HPM_P1;HPM_P2
2022/05/10 00:02:24;;;;;;;;;;;12.80;91.50;;;;;;5087866;28;19945;-76
2022/05/10 00:04:51;;;;;;;;;;;12.80;91.60;;;;;;5069918;28;20387;-76
2022/05/10 00:07:17;;;;;;;;;;;12.80;91.70;;;;;;5088010;28;19912;-75
2022/05/10 00:09:43;;;;;;;;;;;12.80;91.70;;;;;;5069901;28;19908;-74
2022/05/10 00:12:09;;;;;;;;;;;12.80;91.70;;;;;;5087832;28;20492;-75
2022/05/10 00:14:35;;;;;;;;;;;12.80;91.70;;;;;;5087989;28;19943;-75
2022/05/10 00:17:01;;;;;;;;;;;12.80;91.70;;;;;;5088259;28;19957;-75
2022/05/10 00:19:30;;;;;;;;;;;12.80;91.80;;;;;;5088063;28;20424;-73
2022/05/10 00:21:56;;;;;;;;;;;12.70;91.80;;;;;;5087977;28;20469;-75
2022/05/10 00:24:22;;;;;;;;;;;12.70;91.80;;;;;;5087718;28;19937;-74
2022/05/10 00:26:48;;;;;;;;;;;12.70;91.80;;;;;;5069827;28;19931;-75
2022/05/10 00:29:13;;;;;;;;;;;12.70;91.90;;;;;;5069771;28;20386;-74
2022/05/10 00:31:39;;;;;;;;;;;12.70;91.90;;;;;;5069737;28;19912;-75
2022/05/10 00:34:05;;;;;;;;;;;12.70;91.90;;;;;;5087827;28;19919;-74
2022/05/10 00:36:31;;;;;;;;;;;12.70;91.90;;;;;;5087830;28;20003;-73
2022/05/10 00:38:56;;;;;;;;;;;12.60;91.80;;;;;;5069632;28;19966;-74
2022/05/10 00:41:34;;;;;;;;;;;12.60;91.80;;;;;;5087754;28;19912;-73
2022/05/10 00:44:13;;;;;;;;;;;12.70;91.90;;;;;;5087390;28;19920;-76
2022/05/10 00:46:41;;;;;;;;;;;12.70;91.80;;;;;;5087763;28;20159;-74
2022/05/10 00:49:13;;;;;;;;;;;12.70;91.90;;;;;;5089014;28;19922;-74
2022/05/10 00:51:53;;;;;;;;;;;12.70;91.90;;;;;;5091248;28;19916;-75
2022/05/10 00:54:41;;;;;;;;;;;12.70;91.80;;;;;;5091397;28;19908;-74
2022/05/10 00:57:12;;;;;;;;;;;12.70;91.80;;;;;;5091264;28;20262;-74
2022/05/10 00:59:44;;;;;;;;;;;12.60;91.80;;;;;;5073110;28;19926;-74
2022/05/10 01:02:19;;;;;;;;;;;12.60;91.70;;;;;;5072783;28;20301;-74
2022/05/10 01:04:49;;;;;;;;;;;12.60;91.80;;;;;;5073008;28;19944;-75
2022/05/10 01:07:22;;;;;;;;;;;12.60;91.80;;;;;;5091361;28;19911;-75
2022/05/10 01:09:57;;;;;;;;;;;12.50;91.70;;;;;;5091112;28;19911;-75
2022/05/10 01:12:33;;;;;;;;;;;12.50;91.80;;;;;;5090932;28;20274;-74
2022/05/10 01:14:58;;;;;;;;;;;12.50;91.80;;;;;;5072735;28;20328;-75
2022/05/10 01:17:24;;;;;;;;;;;12.50;92.00;;;;;;5090966;28;19908;-74
2022/05/10 01:19:50;;;;;;;;;;;12.40;91.90;;;;;;5090874;28;19961;-73
2022/05/10 01:22:21;;;;;;;;;;;12.40;91.90;;;;;;5090722;28;19908;-74
2022/05/10 01:24:50;;;;;;;;;;;12.30;92.00;;;;;;5090898;28;19915;-74
2022/05/10 01:27:18;;;;;;;;;;;12.30;92.00;;;;;;5091174;28;19970;-75
2022/05/10 01:29:56;;;;;;;;;;;12.30;92.10;;;;;;5090698;28;19951;-74
2022/05/10 01:35:12;;;;;;;;;;;12.30;92.20;;;;;;5090944;28;20007;-74
2022/05/10 01:37:41;;;;;;;;;;;12.20;92.20;;;;;;5072369;28;19947;-74
2022/05/10 01:40:09;;;;;;;;;;;12.20;92.30;;;;;;5090516;28;19998;-73
2022/05/10 01:42:45;;;;;;;;;;;12.20;92.30;;;;;;5090153;28;19970;-74
2022/05/10 01:45:15;;;;;;;;;;;12.20;92.40;;;;;;5090409;28;19908;-73
2022/05/10 01:47:43;;;;;;;;;;;12.20;92.40;;;;;;5072067;28;20002;-74
2022/05/10 01:50:21;;;;;;;;;;;12.20;92.40;;;;;;5090346;28;19992;-75
2022/05/10 01:53:05;;;;;;;;;;;12.20;92.40;;;;;;5072152;28;20299;-75
2022/05/10 01:55:41;;;;;;;;;;;12.20;92.50;;;;;;5090167;28;19916;-73
2022/05/10 01:58:12;;;;;;;;;;;12.10;92.40;;;;;;5072282;28;20278;-74
2022/05/10 02:00:38;;;;;;;;;;;12.10;92.50;;;;;;5089491;28;20006;-74
2022/05/10 02:03:24;;;;;;;;;;;12.10;92.60;;;;;;5071847;28;19916;-73
2022/05/10 02:06:08;;;;;;;;;;;12.10;92.60;;;;;;5064516;28;19924;-74
2022/05/10 02:08:42;;;;;;;;;;;12.10;92.60;;;;;;5089869;28;20333;-75
2022/05/10 02:11:10;;;;;;;;;;;12.10;92.70;;;;;;5089824;28;19919;-73
2022/05/10 02:13:41;;;;;;;;;;;12.00;92.60;;;;;;5089691;28;19970;-75
2022/05/10 02:16:15;;;;;;;;;;;12.10;92.70;;;;;;5089897;28;19908;-73
2022/05/10 02:18:51;;;;;;;;;;;12.00;92.70;;;;;;5071624;28;19943;-73
2022/05/10 02:21:19;;;;;;;;;;;12.00;92.70;;;;;;5071457;28;19909;-74
2022/05/10 02:23:57;;;;;;;;;;;12.00;92.70;;;;;;5089554;28;19919;-75
2022/05/10 02:26:41;;;;;;;;;;;12.00;92.70;;;;;;5089596;28;19950;-74
2022/05/10 02:29:15;;;;;;;;;;;11.90;92.70;;;;;;5071399;28;20193;-74
2022/05/10 02:34:49;;;;;;;;;;;11.90;92.70;;;;;;5088949;28;19915;-74
2022/05/10 02:37:14;;;;;;;;;;;11.90;92.70;;;;;;5071270;28;20372;-73
2022/05/10 02:39:40;;;;;;;;;;;11.90;92.70;;;;;;5071117;28;19915;-73
2022/05/10 02:42:11;;;;;;;;;;;11.80;92.70;;;;;;5089363;28;19923;-74
2022/05/10 02:44:37;;;;;;;;;;;11.80;92.70;;;;;;5089385;28;20328;-73
2022/05/10 02:47:28;;;;;;;;;;;11.80;92.70;;;;;;5105889;27;19916;-76
2022/05/10 02:49:53;;;;;;;;;;;11.80;92.80;;;;;;5105886;28;20390;-74
2022/05/10 02:52:19;;;;;;;;;;;11.70;92.80;;;;;;5104666;28;19938;-74
2022/05/10 02:54:44;;;;;;;;;;;11.70;92.80;;;;;;5104447;28;20404;-75
2022/05/10 02:57:10;;;;;;;;;;;11.70;92.80;;;;;;5105603;28;20374;-75
2022/05/10 02:59:37;;;;;;;;;;;11.70;92.80;;;;;;5104473;28;19926;-75
2022/05/10 03:02:07;;;;;;;;;;;11.70;92.80;;;;;;5105662;28;19995;-75
2022/05/10 03:04:38;;;;;;;;;;;11.70;92.80;;;;;;5105701;28;19912;-75
2022/05/10 03:07:05;;;;;;;;;;;11.70;92.80;;;;;;5105443;28;19912;-74
2022/05/10 03:09:31;;;;;;;;;;;11.60;92.80;;;;;;5104252;28;19916;-73
2022/05/10 03:11:56;;;;;;;;;;;11.60;92.90;;;;;;5104291;28;19912;-75
2022/05/10 03:14:22;;;;;;;;;;;11.60;92.90;;;;;;5105403;28;20011;-75
2022/05/10 03:16:47;;;;;;;;;;;11.60;92.90;;;;;;5105330;28;19999;-75
2022/05/10 03:19:16;;;;;;;;;;;11.60;92.90;;;;;;5104164;28;20353;-76
2022/05/10 03:21:42;;;;;;;;;;;11.60;93.10;;;;;;5104405;28;19919;-75
2022/05/10 03:24:08;;;;;;;;;;;11.60;92.90;;;;;;5105521;28;19915;-75
2022/05/10 03:26:34;;;;;;;;;;;11.60;92.90;;;;;;5105337;28;19912;-74
2022/05/10 03:29:00;;;;;;;;;;;11.60;92.90;;;;;;5103899;28;20316;-75
2022/05/10 03:31:26;;;;;;;;;;;11.60;92.90;;;;;;5105376;28;19908;-75
2022/05/10 03:36:38;;;;;;;;;;;11.60;92.90;;;;;;5083033;28;20270;-75
2022/05/10 03:39:04;;;;;;;;;;;11.50;92.90;;;;;;5103770;28;19914;-73
2022/05/10 03:41:30;;;;;;;;;;;11.50;92.90;;;;;;5105088;28;19912;-76
2022/05/10 03:43:56;;;;;;;;;;;11.40;93.00;;;;;;5105025;28;19919;-74
2022/05/10 03:46:21;;;;;;;;;;;11.40;93.00;;;;;;5103232;28;19931;-75
2022/05/10 03:48:49;;;;;;;;;;;11.40;93.00;;;;;;5103533;28;19941;-75
2022/05/10 03:51:14;;;;;;;;;;;11.40;93.10;;;;;;5104777;28;19934;-75
2022/05/10 03:53:40;;;;;;;;;;;11.40;93.00;;;;;;5104986;28;19916;-75
2022/05/10 03:56:06;;;;;;;;;;;11.40;93.10;;;;;;5104616;28;19943;-75
2022/05/10 03:58:31;;;;;;;;;;;11.30;93.10;;;;;;5091960;28;20577;-73
2022/05/10 04:00:57;;;;;;;;;;;11.30;93.10;;;;;;5090950;28;20328;-73
2022/05/10 04:03:22;;;;;;;;;;;11.40;93.20;;;;;;5090862;28;19915;-74
2022/05/10 04:05:48;;;;;;;;;;;11.40;93.20;;;;;;5090845;28;19955;-77
2022/05/10 04:08:14;;;;;;;;;;;11.40;93.20;;;;;;5090750;28;19961;-75
2022/05/10 04:10:40;;;;;;;;;;;11.40;93.20;;;;;;5090815;28;19916;-75
2022/05/10 04:13:05;;;;;;;;;;;11.40;93.20;;;;;;5090920;28;19969;-75
2022/05/10 04:15:31;;;;;;;;;;;11.40;93.10;;;;;;5089431;28;19955;-74
2022/05/10 04:17:57;;;;;;;;;;;11.40;93.20;;;;;;5089329;28;20434;-74
2022/05/10 04:20:22;;;;;;;;;;;11.40;93.10;;;;;;5089317;28;19916;-75
2022/05/10 04:22:48;;;;;;;;;;;11.40;93.20;;;;;;5090637;28;20024;-74
2022/05/10 04:25:17;;;;;;;;;;;11.40;93.20;;;;;;5089213;28;19923;-74
2022/05/10 04:27:42;;;;;;;;;;;11.40;93.20;;;;;;5090428;28;20354;-74
2022/05/10 04:30:08;;;;;;;;;;;11.40;93.20;;;;;;5090379;28;19920;-75
2022/05/10 04:32:36;;;;;;;;;;;11.30;93.10;;;;;;5090428;28;19923;-74
2022/05/10 04:35:02;;;;;;;;;;;11.30;93.20;;;;;;5072320;28;19927;-76
2022/05/10 04:37:27;;;;;;;;;;;11.30;93.20;;;;;;5090280;28;19904;-74
2022/05/10 04:42:37;;;;;;;;;;;11.30;93.30;;;;;;5090556;28;20289;-75
2022/05/10 04:45:02;;;;;;;;;;;11.30;93.30;;;;;;5073352;28;19912;-76
2022/05/10 04:47:28;;;;;;;;;;;11.30;93.40;;;;;;5110508;28;19962;-76
2022/05/10 04:49:54;;;;;;;;;;;11.40;93.50;;;;;;5092120;28;19936;-74
2022/05/10 04:52:19;;;;;;;;;;;11.40;93.50;;;;;;5110205;28;19955;-76
2022/05/10 04:54:45;;;;;;;;;;;11.40;93.50;;;;;;5092308;28;20296;-75
2022/05/10 04:57:10;;;;;;;;;;;11.50;93.50;;;;;;5110119;28;19957;-74
2022/05/10 04:59:36;;;;;;;;;;;11.50;93.50;;;;;;5091924;28;19926;-74
2022/05/10 05:02:01;;;;;;;;;;;11.60;93.60;;;;;;5091924;28;19908;-75
2022/05/10 05:04:27;;;;;;;;;;;11.70;93.60;;;;;;5110143;28;19919;-74
2022/05/10 05:06:52;;;;;;;;;;;11.80;93.50;;;;;;5091634;28;19999;-74
2022/05/10 05:09:18;;;;;;;;;;;11.80;93.40;;;;;;5108891;28;20341;-74
2022/05/10 05:11:44;;;;;;;;;;;11.90;93.40;;;;;;5109913;28;19908;-74
2022/05/10 05:14:10;;;;;;;;;;;12.00;93.40;;;;;;5091561;28;19916;-76
2022/05/10 05:16:36;;;;;;;;;;;12.10;93.40;;;;;;5109475;28;19969;-75
2022/05/10 05:19:02;;;;;;;;;;;12.10;93.30;;;;;;5091621;28;20437;-74
2022/05/10 05:21:28;;;;;;;;;;;12.10;93.20;;;;;;5091402;28;19912;-75
2022/05/10 05:23:53;;;;;;;;;;;12.20;93.10;;;;;;5091534;28;19923;-75
2022/05/10 05:26:19;;;;;;;;;;;12.20;93.10;;;;;;5109705;28;19915;-74
2022/05/10 05:28:44;;;;;;;;;;;12.20;93.10;;;;;;5074449;28;20383;-75
2022/05/10 05:31:11;;;;;;;;;;;12.30;93.10;;;;;;5109253;28;19912;-76
2022/05/10 05:33:37;;;;;;;;;;;12.30;93.10;;;;;;5091174;28;19912;-75
2022/05/10 05:36:03;;;;;;;;;;;12.30;93.10;;;;;;5109398;28;19912;-73
2022/05/10 05:38:28;;;;;;;;;;;12.40;93.00;;;;;;5109444;28;19912;-74
2022/05/10 05:40:54;;;;;;;;;;;12.50;93.00;;;;;;5109553;28;19908;-75
2022/05/10 05:43:20;;;;;;;;;;;12.50;92.90;;;;;;5109068;28;19915;-75
2022/05/10 05:45:46;;;;;;;;;;;12.60;92.80;;;;;;5089778;28;19977;-73
2022/05/10 05:48:11;;;;;;;;;;;12.70;92.80;;;;;;5108332;28;20311;-75
2022/05/10 05:50:37;;;;;;;;;;;12.80;92.70;;;;;;5108348;28;19950;-75
2022/05/10 05:53:04;;;;;;;;;;;12.90;92.70;;;;;;5109065;28;19938;-74
2022/05/10 05:55:29;;;;;;;;;;;13.00;92.60;;;;;;5108798;28;19916;-76
2022/05/10 05:57:56;;;;;;;;;;;13.10;92.50;;;;;;5108349;28;19931;-74
2022/05/10 06:00:25;;;;;;;;;;;13.20;92.40;;;;;;5109334;28;20013;-76
2022/05/10 06:02:51;;;;;;;;;;;13.20;92.30;;;;;;5090669;28;19911;-74
2022/05/10 06:05:17;;;;;;;;;;;13.30;92.10;;;;;;5108514;28;19912;-72
2022/05/10 06:07:43;;;;;;;;;;;13.30;92.00;;;;;;5108765;28;19914;-75
2022/05/10 06:10:09;;;;;;;;;;;13.40;91.90;;;;;;5090311;28;19916;-74
2022/05/10 06:12:35;;;;;;;;;;;13.50;91.80;;;;;;5108595;28;19912;-75
2022/05/10 06:15:07;;;;;;;;;;;13.60;92.00;;;;;;5090146;28;19908;-74
2022/05/10 06:17:33;;;;;;;;;;;13.80;91.80;;;;;;5090194;28;19998;-75
2022/05/10 06:19:59;;;;;;;;;;;14.00;91.40;;;;;;5089824;28;19932;-75
2022/05/10 06:22:24;;;;;;;;;;;14.00;91.20;;;;;;5073364;28;20338;-74
2022/05/10 06:24:50;;;;;;;;;;;14.00;91.10;;;;;;5108419;28;20322;-74
2022/05/10 06:27:16;;;;;;;;;;;13.90;91.00;;;;;;5108049;28;20110;-73
2022/05/10 06:29:42;;;;;;;;;;;13.90;91.10;;;;;;5107929;28;19907;-75
2022/05/10 06:32:08;;;;;;;;;;;14.00;91.30;;;;;;5089392;28;19923;-75
2022/05/10 06:34:33;;;;;;;;;;;15.00;91.80;;;;;;5072779;28;19923;-75
2022/05/10 06:36:59;;;;;;;;;;;15.80;89.90;;;;;;5108415;28;19963;-76
2022/05/10 06:39:25;;;;;;;;;;;15.80;88.70;;;;;;5108164;28;19912;-74
2022/05/10 06:41:50;;;;;;;;;;;15.60;88.40;;;;;;5072933;28;19912;-74
2022/05/10 06:44:16;;;;;;;;;;;15.30;88.40;;;;;;5108016;28;20421;-75
2022/05/10 06:46:42;;;;;;;;;;;15.10;88.50;;;;;;5072628;28;20301;-75
2022/05/10 06:49:09;;;;;;;;;;;14.90;89.20;;;;;;5107894;28;19912;-75
2022/05/10 06:51:35;;;;;;;;;;;15.00;89.80;;;;;;5089738;28;19916;-74
2022/05/10 06:54:01;;;;;;;;;;;15.10;89.40;;;;;;5089138;28;20331;-75
2022/05/10 06:56:26;;;;;;;;;;;15.10;89.20;;;;;;5108082;28;19995;-76
2022/05/10 06:58:52;;;;;;;;;;;15.10;89.30;;;;;;5088720;28;19919;-75
2022/05/10 07:01:18;;;;;;;;;;;15.10;89.50;;;;;;5089203;28;20258;-75
2022/05/10 07:03:47;;;;;;;;;;;15.10;89.00;;;;;;5107235;28;19908;-73
2022/05/10 07:06:16;;;;;;;;;;;15.00;88.70;;;;;;5088750;28;20003;-74
2022/05/10 07:08:41;;;;;;;;;;;14.90;88.70;;;;;;5106863;28;19912;-74
2022/05/10 07:11:07;;;;;;;;;;;14.80;89.00;;;;;;5089093;28;19924;-75
2022/05/10 07:13:33;;;;;;;;;;;14.70;89.00;;;;;;5107413;28;19912;-76
2022/05/10 07:15:59;;;;;;;;;;;14.60;89.20;;;;;;5107461;28;19977;-73
2022/05/10 07:18:25;;;;;;;;;;;14.60;89.20;;;;;;5088973;28;19972;-72
2022/05/10 07:20:52;;;;;;;;;;;14.50;89.50;;;;;;5107323;28;20231;-74
2022/05/10 07:23:35;;;;;;;;;;;14.50;89.80;;;;;;5088482;28;20021;-75
2022/05/10 07:26:01;;;;;;;;;;;14.50;90.00;;;;;;5107364;28;19918;-74
2022/05/10 07:28:29;;;;;;;;;;;14.80;90.30;;;;;;5088844;28;20431;-74
2022/05/10 07:30:56;;;;;;;;;;;15.30;90.00;;;;;;5106795;28;19962;-74
2022/05/10 07:33:21;;;;;;;;;;;15.50;88.60;;;;;;5109369;28;19916;-74
2022/05/10 07:38:31;;;;;;;;;;;15.80;87.70;;;;;;5111337;28;20384;-75
2022/05/10 07:40:57;;;;;;;;;;;16.50;88.10;;;;;;5110765;28;19919;-74
2022/05/10 07:43:23;;;;;;;;;;;17.80;88.10;;;;;;5092716;28;19912;-73
2022/05/10 07:45:50;;;;;;;;;;;19.60;85.80;;;;;;5092792;28;20018;-76
2022/05/10 07:48:16;;;;;;;;;;;20.10;79.60;;;;;;5111137;28;19915;-74
2022/05/10 07:50:41;;;;;;;;;;;20.00;79.80;;;;;;5111103;28;19916;-74
2022/05/10 07:53:10;;;;;;;;;;;20.60;79.90;;;;;;5110902;28;19915;-76
2022/05/10 07:55:36;;;;;;;;;;;21.30;77.80;;;;;;5110474;28;19914;-75
2022/05/10 07:58:05;;;;;;;;;;;20.90;73.80;;;;;;5110616;28;19990;-73
2022/05/10 08:00:35;;;;;;;;;;;20.30;74.80;;;;;;5110598;28;19972;-76
2022/05/10 08:03:07;;;;;;;;;;;19.90;74.60;;;;;;5110346;28;19919;-74
2022/05/10 08:05:33;;;;;;;;;;;19.70;75.10;;;;;;5110226;28;19911;-76
2022/05/10 08:07:58;;;;;;;;;;;19.80;74.90;;;;;;5110598;28;19912;-75
2022/05/10 08:10:24;;;;;;;;;;;20.00;73.90;;;;;;5110454;28;19953;-75
2022/05/10 08:12:49;;;;;;;;;;;20.30;74.10;;;;;;5110387;28;19923;-75
2022/05/10 08:15:15;;;;;;;;;;;20.40;73.80;;;;;;5075446;28;19947;-74
2022/05/10 08:17:41;;;;;;;;;;;21.00;73.60;;;;;;5110603;28;20014;-76
2022/05/10 08:20:07;;;;;;;;;;;22.00;72.10;;;;;;5091985;28;19923;-75
2022/05/10 08:22:32;;;;;;;;;;;22.40;70.10;;;;;;5091697;28;20354;-75
2022/05/10 08:24:58;;;;;;;;;;;22.80;69.50;;;;;;5110204;28;19927;-75
2022/05/10 08:27:24;;;;;;;;;;;23.20;68.60;;;;;;5110299;28;19915;-76
2022/05/10 08:29:50;;;;;;;;;;;23.60;67.70;;;;;;5091170;28;20097;-77
2022/05/10 08:32:15;;;;;;;;;;;23.80;66.80;;;;;;5103604;28;19912;-75
2022/05/10 08:34:41;;;;;;;;;;;23.70;66.10;;;;;;5099464;28;19935;-76
2022/05/10 08:37:07;;;;;;;;;;;23.90;65.90;;;;;;5082963;28;19931;-75
2022/05/10 08:39:33;;;;;;;;;;;23.70;63.80;;;;;;5100695;28;19916;-76
2022/05/10 08:42:00;;;;;;;;;;;23.40;65.40;;;;;;5098451;28;19915;-75
2022/05/10 08:44:31;;;;;;;;;;;23.50;64.60;;;;;;5099798;28;20316;-75
2022/05/10 08:46:58;;;;;;;;;;;23.50;63.70;;;;;;5099161;28;19994;-77
2022/05/10 08:49:40;;;;;;;;;;;23.40;63.60;;;;;;5097597;28;19909;-76
2022/05/10 08:52:06;;;;;;;;;;;23.00;62.70;;;;;;5097485;28;19945;-74
2022/05/10 08:54:34;;;;;;;;;;;22.50;63.30;;;;;;5079351;28;19912;-75
2022/05/10 08:57:05;;;;;;;;;;;22.60;63.50;;;;;;5095262;28;19916;-75
2022/05/10 08:59:33;;;;;;;;;;;23.00;62.80;;;;;;5097939;28;19908;-76
2022/05/10 09:02:01;;;;;;;;;;;23.40;62.50;;;;;;5098094;28;19908;-77
2022/05/10 09:04:40;;;;;;;;;;;23.50;62.30;;;;;;5101112;28;19914;-77
2022/05/10 09:07:13;;;;;;;;;;;23.80;61.00;;;;;;5099703;28;20003;-76
2022/05/10 09:09:47;;;;;;;;;;;23.90;61.20;;;;;;5099585;28;19915;-76
2022/05/10 09:12:17;;;;;;;;;;;24.50;61.10;;;;;;5098687;28;19936;-77
2022/05/10 09:15:10;;;;;;;;;;;24.80;59.70;;;;;;5102068;28;19939;-75
2022/05/10 09:17:39;;;;;;;;;;;24.20;58.50;;;;;;5096446;28;19907;-75
2022/05/10 09:20:06;;;;;;;;;;;23.50;58.10;;;;;;5098092;28;19973;-76
2022/05/10 09:22:41;;;;;;;;;;;22.50;57.80;;;;;;5100385;28;20400;-75
2022/05/10 09:25:19;;;;;;;;;;;21.50;59.50;;;;;;5085365;28;20337;-75
2022/05/10 09:27:45;;;;;;;;;;;20.70;60.20;;;;;;5098399;28;19916;-75
2022/05/10 09:30:23;;;;;;;;;;;20.60;62.30;;;;;;5080425;28;19925;-74
2022/05/10 09:35:47;;;;;;;;;;;20.50;61.60;;;;;;5100574;28;20018;-76
2022/05/10 09:38:16;;;;;;;;;;;20.70;62.60;;;;;;5098979;28;20271;-75
2022/05/10 09:40:41;;;;;;;;;;;21.30;63.00;;;;;;5098788;28;19908;-76
2022/05/10 09:43:19;;;;;;;;;;;21.90;61.30;;;;;;5101897;28;19916;-76
2022/05/10 09:46:02;;;;;;;;;;;21.50;60.60;;;;;;5076487;28;19928;-76
2022/05/10 09:48:28;;;;;;;;;;;21.00;61.10;;;;;;5077638;28;19916;-76
2022/05/10 09:50:53;;;;;;;;;;;21.30;62.40;;;;;;5082563;28;20005;-75
2022/05/10 09:53:21;;;;;;;;;;;22.20;62.00;;;;;;5080541;28;19924;-77
2022/05/10 09:56:03;;;;;;;;;;;23.30;61.90;;;;;;5087018;28;19919;-76
2022/05/10 09:58:31;;;;;;;;;;;24.20;59.20;;;;;;5089162;28;19908;-75
2022/05/10 10:00:58;;;;;;;;;;;24.80;59.10;;;;;;5089597;28;19908;-74
2022/05/10 10:03:50;;;;;;;;;;;25.00;57.00;;;;;;5089959;28;19909;-77
2022/05/10 10:06:19;;;;;;;;;;;24.60;56.50;;;;;;5088469;28;20404;-74
2022/05/10 10:08:46;;;;;;;;;;;24.20;56.60;;;;;;5088280;28;19909;-75
2022/05/10 10:11:32;;;;;;;;;;;24.00;56.90;;;;;;5090020;28;19991;-74
2022/05/10 10:14:06;;;;;;;;;;;24.20;57.70;;;;;;5089141;28;19915;-76
2022/05/10 10:16:37;;;;;;;;;;;24.90;58.20;;;;;;5087557;28;20350;-74
2022/05/10 10:19:28;;;;;;;;;;;25.20;56.20;;;;;;5088618;28;19953;-74
2022/05/10 10:22:15;;;;;;;;;;;25.10;55.90;;;;;;5087880;28;19912;-76
2022/05/10 10:24:50;;;;;;;;;;;25.50;56.30;;;;;;5089213;28;19908;-76
2022/05/10 10:27:39;;;;;;;;;;;26.20;55.60;;;;;;5088698;28;19955;-75
2022/05/10 10:30:05;;;;;;;;;;;26.10;53.90;;;;;;5087972;28;19918;-75
2022/05/10 10:32:35;;;;;;;;;;;25.50;54.60;;;;;;5088450;28;19908;-76
2022/05/10 10:35:16;;;;;;;;;;;25.50;54.40;;;;;;5088453;28;20346;-74
2022/05/10 10:37:54;;;;;;;;;;;25.70;54.00;;;;;;5089545;28;19912;-77
2022/05/10 10:40:30;;;;;;;;;;;26.10;53.10;;;;;;5089054;28;20358;-76
2022/05/10 10:43:02;;;;;;;;;;;26.20;52.20;;;;;;5088798;28;19912;-76
2022/05/10 10:45:34;;;;;;;;;;;26.60;52.30;;;;;;5093359;28;20319;-75
2022/05/10 10:48:03;;;;;;;;;;;27.10;51.70;;;;;;5090594;28;19912;-75
2022/05/10 10:50:33;;;;;;;;;;;27.10;51.50;;;;;;5108204;28;19994;-75
2022/05/10 10:52:59;;;;;;;;;;;27.30;51.70;;;;;;5108608;28;19912;-74
2022/05/10 10:55:43;;;;;;;;;;;27.60;50.20;;;;;;5108129;28;20282;-75
2022/05/10 10:58:13;;;;;;;;;;;27.70;49.90;;;;;;5096533;28;20271;-76
2022/05/10 11:00:47;;;;;;;;;;;27.80;48.60;;;;;;5092921;28;19918;-75
2022/05/10 11:03:26;;;;;;;;;;;27.70;49.10;;;;;;5102081;28;19948;-75
2022/05/10 11:06:01;;;;;;;;;;;27.60;48.40;;;;;;5081253;28;19920;-75
2022/05/10 11:08:51;;;;;;;;;;;27.30;48.50;;;;;;5093973;28;19952;-74
2022/05/10 11:11:29;;;;;;;;;;;26.70;48.00;;;;;;5110659;28;19911;-75
2022/05/10 11:14:02;;;;;;;;;;;25.80;48.60;;;;;;5112547;28;19953;-75
2022/05/10 11:16:27;;;;;;;;;;;25.10;49.20;;;;;;5113212;28;19908;-73
2022/05/10 11:18:53;;;;;;;;;;;24.40;50.10;;;;;;5113471;28;19938;-74
2022/05/10 11:21:34;;;;;;;;;;;24.10;50.90;;;;;;5112185;28;20346;-72
2022/05/10 11:24:11;;;;;;;;;;;24.40;51.80;;;;;;5111554;28;19964;-72
2022/05/10 11:26:39;;;;;;;;;;;24.70;50.70;;;;;;5111100;28;20312;-72
2022/05/10 11:29:23;;;;;;;;;;;24.30;49.90;;;;;;5112284;28;20305;-76
2022/05/10 11:31:55;;;;;;;;;;;24.10;49.90;;;;;;5112359;28;19916;-75
2022/05/10 11:34:30;;;;;;;;;;;24.30;50.70;;;;;;5112470;28;19921;-74
2022/05/10 11:36:59;;;;;;;;;;;25.10;51.30;;;;;;5112450;28;19908;-77
2022/05/10 11:39:41;;;;;;;;;;;25.90;50.80;;;;;;5112047;28;20014;-68
2022/05/10 11:42:10;;;;;;;;;;;26.50;50.30;;;;;;5112186;28;19912;-74
2022/05/10 11:44:45;;;;;;;;;;;27.00;49.00;;;;;;5111981;28;20355;-76
2022/05/10 11:47:30;;;;;;;;;;;26.80;48.50;;;;;;5093075;28;20023;-72
2022/05/10 11:50:14;;;;;;;;;;;26.70;48.00;;;;;;5042471;28;20350;-73
2022/05/10 11:52:58;;;;;;;;;;;26.40;48.70;;;;;;5111920;28;19911;-74
2022/05/10 11:55:31;;;;;;;;;;;26.20;48.30;;;;;;5112253;28;19908;-74
2022/05/10 11:57:59;;;;;;;;;;;26.20;49.30;;;;;;5112237;28;20235;-74
2022/05/10 12:00:30;;;;;;;;;;;25.80;48.60;;;;;;5111653;28;19998;-71
2022/05/10 12:02:57;;;;;;;;;;;25.10;48.70;;;;;;5111271;28;19915;-73
2022/05/10 12:05:23;;;;;;;;;;;24.30;49.10;;;;;;5092913;28;20308;-73
2022/05/10 12:08:01;;;;;;;;;;;23.60;49.60;;;;;;5111716;28;19915;-73
2022/05/10 12:10:26;;;;;;;;;;;23.10;50.20;;;;;;5111911;28;20006;-74
2022/05/10 12:12:52;;;;;;;;;;;23.20;51.30;;;;;;5111359;28;20007;-70
2022/05/10 12:21:20;;;;;;;;;;;24.10;50.90;;;;;;5099637;28;20397;-74
2022/05/10 12:23:58;;;;;;;;;;;23.70;50.60;;;;;;5100529;28;19908;-75
2022/05/10 12:26:33;;;;;;;;;;;23.00;50.60;;;;;;5098950;28;19915;-71
2022/05/10 12:28:58;;;;;;;;;;;22.00;51.50;;;;;;5099395;28;19916;-75
2022/05/10 12:31:30;;;;;;;;;;;21.30;53.10;;;;;;5081435;28;19913;-75
2022/05/10 12:34:19;;;;;;;;;;;21.30;54.40;;;;;;5107638;28;19908;-76
2022/05/10 12:36:45;;;;;;;;;;;21.90;54.80;;;;;;5099019;28;19960;-74
2022/05/10 12:39:36;;;;;;;;;;;23.00;55.30;;;;;;5099240;28;20011;-74
2022/05/10 12:42:06;;;;;;;;;;;24.20;54.80;;;;;;5096784;28;19912;-73
2022/05/10 12:44:44;;;;;;;;;;;25.20;54.10;;;;;;5100704;28;19922;-75
2022/05/10 12:47:28;;;;;;;;;;;25.30;52.70;;;;;;5101478;28;20358;-74
2022/05/10 12:50:04;;;;;;;;;;;24.60;51.80;;;;;;5103906;28;20089;-73
2022/05/10 12:52:39;;;;;;;;;;;23.70;52.50;;;;;;5103267;28;19999;-76
2022/05/10 12:55:07;;;;;;;;;;;22.90;53.20;;;;;;5103895;28;20251;-73
2022/05/10 12:57:39;;;;;;;;;;;22.80;54.90;;;;;;5081324;28;19911;-74
2022/05/10 13:00:11;;;;;;;;;;;23.40;55.80;;;;;;5105799;28;19922;-75
2022/05/10 13:02:42;;;;;;;;;;;24.00;54.90;;;;;;5097131;28;19919;-73
2022/05/10 13:05:13;;;;;;;;;;;24.30;54.20;;;;;;5100304;28;19962;-75
2022/05/10 13:07:39;;;;;;;;;;;24.50;53.80;;;;;;5083629;28;20140;-74
2022/05/10 13:10:10;;;;;;;;;;;24.70;53.20;;;;;;5099360;28;19915;-74
2022/05/10 13:12:43;;;;;;;;;;;24.70;52.80;;;;;;5099638;28;19908;-74
2022/05/10 13:15:13;;;;;;;;;;;24.60;52.00;;;;;;5100190;28;20113;-75
2022/05/10 13:17:42;;;;;;;;;;;24.10;50.90;;;;;;5099254;28;19943;-75
2022/05/10 13:20:10;;;;;;;;;;;23.50;50.50;;;;;;5101385;28;20293;-75
2022/05/10 13:22:37;;;;;;;;;;;22.90;50.70;;;;;;5100687;28;19960;-74
2022/05/10 13:25:06;;;;;;;;;;;22.60;51.20;;;;;;5099272;28;19950;-72
2022/05/10 13:27:35;;;;;;;;;;;22.40;51.80;;;;;;5101543;28;20002;-77
2022/05/10 13:30:10;;;;;;;;;;;22.30;52.40;;;;;;5080647;28;20214;-75
2022/05/10 13:32:40;;;;;;;;;;;22.40;52.30;;;;;;5108264;28;19908;-73
2022/05/10 13:35:09;;;;;;;;;;;22.20;52.40;;;;;;5098270;28;19935;-74
2022/05/10 13:37:36;;;;;;;;;;;22.00;52.40;;;;;;5103822;28;19982;-75
2022/05/10 13:40:11;;;;;;;;;;;21.80;52.70;;;;;;5101986;28;19923;-73
2022/05/10 13:42:41;;;;;;;;;;;21.70;51.70;;;;;;5094745;28;20365;-66
2022/05/10 13:45:07;;;;;;;;;;;21.60;51.40;;;;;;5098895;28;19915;-76
2022/05/10 13:47:33;;;;;;;;;;;21.40;51.20;;;;;;5099941;28;20369;-77
2022/05/10 13:49:59;;;;;;;;;;;21.30;51.50;;;;;;5106052;28;19915;-75
2022/05/10 13:52:32;;;;;;;;;;;21.00;51.50;;;;;;5097961;28;19966;-76
2022/05/10 13:54:59;;;;;;;;;;;20.80;51.80;;;;;;5097867;28;20280;-76
2022/05/10 13:57:27;;;;;;;;;;;20.70;52.10;;;;;;5100243;28;19912;-75
2022/05/10 14:00:04;;;;;;;;;;;20.60;52.00;;;;;;5082681;28;19931;-74
2022/05/10 14:02:30;;;;;;;;;;;20.50;52.00;;;;;;5100791;28;19916;-75
2022/05/10 14:04:56;;;;;;;;;;;20.50;52.10;;;;;;5091655;28;19995;-74
2022/05/10 14:07:25;;;;;;;;;;;20.50;52.20;;;;;;5088843;28;20350;-72
2022/05/10 14:09:53;;;;;;;;;;;20.40;52.00;;;;;;5089213;28;20563;-73
2022/05/10 14:12:24;;;;;;;;;;;20.30;52.10;;;;;;5088949;28;20373;-72
2022/05/10 14:14:50;;;;;;;;;;;20.30;52.10;;;;;;5089394;28;19916;-73
2022/05/10 14:17:16;;;;;;;;;;;20.30;51.90;;;;;;5088373;28;20002;-75
2022/05/10 14:19:45;;;;;;;;;;;20.40;51.80;;;;;;5089098;28;20015;-73
2022/05/10 14:22:15;;;;;;;;;;;20.50;51.90;;;;;;5088942;28;20319;-75
2022/05/10 14:24:41;;;;;;;;;;;20.70;51.90;;;;;;5088898;28;19969;-74
2022/05/10 14:27:07;;;;;;;;;;;20.90;52.10;;;;;;5088538;28;20358;-75
2022/05/10 14:29:36;;;;;;;;;;;21.10;51.80;;;;;;5088818;28;20372;-73
2022/05/10 14:32:03;;;;;;;;;;;21.10;51.80;;;;;;5088106;28;19915;-75
2022/05/10 14:34:48;;;;;;;;;;;21.00;51.90;;;;;;5088570;28;19960;-74
2022/05/10 14:37:29;;;;;;;;;;;20.90;51.50;;;;;;5088687;28;19915;-74
2022/05/10 14:39:56;;;;;;;;;;;20.70;51.30;;;;;;5088777;28;19908;-73
2022/05/10 14:42:25;;;;;;;;;;;20.30;51.40;;;;;;5069984;28;19973;-70
2022/05/10 14:44:51;;;;;;;;;;;20.10;51.80;;;;;;5069960;28;20370;-73
2022/05/10 14:47:18;;;;;;;;;;;19.90;52.10;;;;;;5093973;28;20374;-74
2022/05/10 14:49:48;;;;;;;;;;;19.70;52.60;;;;;;5099761;28;20315;-72
2022/05/10 14:52:20;;;;;;;;;;;19.60;53.10;;;;;;5100359;28;19999;-73
2022/05/10 14:54:46;;;;;;;;;;;19.60;53.50;;;;;;5098875;28;19916;-72